sensor_id;sensor_type;location;lat;lon;timestamp;pressure;altitude;pressure_sealevel;temperature;humidity
36692;BME280;22678;52.052;4.242;2023-10-08T00:01:03;102361.00;;;19.06;88.83
36692;BME280;22678;52.052;4.242;2023-10-08T00:03:28;102362.91;;;19.01;88.71
36692;BME280;22678;52.052;4.242;2023-10-08T00:05:55;102370.81;;;19.05;89.00
36692;BME280;22678;52.052;4.242;2023-10-08T00:08:21;102369.94;;;19.03;89.15
36692;BME280;22678;52.052;4.242;2023-10-08T00:10:47;102373.53;;;19.02;89.11
36692;BME280;22678;52.052;4.242;2023-10-08T00:13:14;102367.38;;;18.99;89.26
36692;BME280;22678;52.052;4.242;2023-10-08T00:15:43;102374.47;;;19.00;89.43
36692;BME280;22678;52.052;4.242;2023-10-08T00:18:19;102361.16;;;18.98;89.54
36692;BME280;22678;52.052;4.242;2023-10-08T00:20:45;102321.47;;;18.81;89.57
36692;BME280;22678;52.052;4.242;2023-10-08T00:23:21;102328.50;;;18.87;89.92
36692;BME280;22678;52.052;4.242;2023-10-08T00:25:47;102323.22;;;18.82;89.64
36692;BME280;22678;52.052;4.242;2023-10-08T00:28:15;102339.97;;;18.92;89.64
36692;BME280;22678;52.052;4.242;2023-10-08T00:30:42;102332.03;;;18.89;89.92
36692;BME280;22678;52.052;4.242;2023-10-08T00:33:09;102308.09;;;18.83;89.89
36692;BME280;22678;52.052;4.242;2023-10-08T00:35:41;102320.41;;;18.91;89.79
36692;BME280;22678;52.052;4.242;2023-10-08T00:38:10;102320.44;;;18.90;90.03
36692;BME280;22678;52.052;4.242;2023-10-08T00:40:46;102303.59;;;18.89;90.17
36692;BME280;22678;52.052;4.242;2023-10-08T00:43:31;102308.91;;;18.89;90.26
36692;BME280;22678;52.052;4.242;2023-10-08T00:46:00;102300.09;;;18.84;90.34
36692;BME280;22678;52.052;4.242;2023-10-08T00:48:26;102313.38;;;18.89;90.57
36692;BME280;22678;52.052;4.242;2023-10-08T00:50:56;102327.59;;;18.88;90.31
36692;BME280;22678;52.052;4.242;2023-10-08T00:53:36;102309.94;;;18.81;90.51
36692;BME280;22678;52.052;4.242;2023-10-08T00:56:05;102336.53;;;18.84;90.15
36692;BME280;22678;52.052;4.242;2023-10-08T00:58:37;102342.72;;;18.86;90.04
36692;BME280;22678;52.052;4.242;2023-10-08T01:01:03;102349.00;;;18.82;90.15
36692;BME280;22678;52.052;4.242;2023-10-08T01:03:28;102349.09;;;18.77;90.11
36692;BME280;22678;52.052;4.242;2023-10-08T01:05:55;102354.47;;;18.74;90.00
36692;BME280;22678;52.052;4.242;2023-10-08T01:08:22;102342.94;;;18.73;90.06
36692;BME280;22678;52.052;4.242;2023-10-08T01:11:36;102343.75;;;18.79;90.24
36692;BME280;22678;52.052;4.242;2023-10-08T01:14:12;102357.97;;;18.78;89.94
36692;BME280;22678;52.052;4.242;2023-10-08T01:16:37;102344.72;;;18.73;90.18
36692;BME280;22678;52.052;4.242;2023-10-08T01:19:04;102322.50;;;18.72;90.20
36692;BME280;22678;52.052;4.242;2023-10-08T01:21:30;102307.53;;;18.67;90.11
36692;BME280;22678;52.052;4.242;2023-10-08T01:24:05;102326.09;;;18.71;90.38
36692;BME280;22678;52.052;4.242;2023-10-08T01:26:32;102327.91;;;18.69;90.17
36692;BME280;22678;52.052;4.242;2023-10-08T01:28:58;102319.13;;;18.64;90.38
36692;BME280;22678;52.052;4.242;2023-10-08T01:31:28;102335.88;;;18.71;90.26
36692;BME280;22678;52.052;4.242;2023-10-08T01:33:54;102348.28;;;18.72;90.42
36692;BME280;22678;52.052;4.242;2023-10-08T01:36:24;102348.31;;;18.70;90.51
36692;BME280;22678;52.052;4.242;2023-10-08T01:38:51;102343.03;;;18.69;90.58
36692;BME280;22678;52.052;4.242;2023-10-08T01:41:17;102350.19;;;18.67;90.44
36692;BME280;22678;52.052;4.242;2023-10-08T01:43:45;102368.81;;;18.68;90.54
36692;BME280;22678;52.052;4.242;2023-10-08T01:46:11;102380.34;;;18.67;90.59
36692;BME280;22678;52.052;4.242;2023-10-08T01:48:38;102381.19;;;18.69;90.63
36692;BME280;22678;52.052;4.242;2023-10-08T01:51:05;102345.25;;;18.44;90.76
36692;BME280;22678;52.052;4.242;2023-10-08T01:53:37;102388.28;;;18.70;90.93
36692;BME280;22678;52.052;4.242;2023-10-08T01:56:04;102374.22;;;18.62;90.95
36692;BME280;22678;52.052;4.242;2023-10-08T01:58:29;102386.53;;;18.69;91.12
36692;BME280;22678;52.052;4.242;2023-10-08T02:00:55;102380.44;;;18.63;91.26
36692;BME280;22678;52.052;4.242;2023-10-08T02:03:24;102379.47;;;18.65;91.18
36692;BME280;22678;52.052;4.242;2023-10-08T02:05:49;102382.16;;;18.65;91.20
36692;BME280;22678;52.052;4.242;2023-10-08T02:08:19;102376.81;;;18.67;91.45
36692;BME280;22678;52.052;4.242;2023-10-08T02:10:45;102373.31;;;18.63;91.37
36692;BME280;22678;52.052;4.242;2023-10-08T02:13:13;102375.00;;;18.69;91.69
36692;BME280;22678;52.052;4.242;2023-10-08T02:15:48;102368.88;;;18.62;91.84
36692;BME280;22678;52.052;4.242;2023-10-08T02:18:16;102360.88;;;18.64;91.84
36692;BME280;22678;52.052;4.242;2023-10-08T02:20:42;102346.72;;;18.60;91.67
36692;BME280;22678;52.052;4.242;2023-10-08T02:23:08;102358.16;;;18.65;92.00
36692;BME280;22678;52.052;4.242;2023-10-08T02:25:37;102360.88;;;18.64;92.03
36692;BME280;22678;52.052;4.242;2023-10-08T02:28:03;102367.06;;;18.66;92.18
36692;BME280;22678;52.052;4.242;2023-10-08T02:30:29;102362.69;;;18.62;92.23
36692;BME280;22678;52.052;4.242;2023-10-08T02:32:54;102367.13;;;18.63;92.41
36692;BME280;22678;52.052;4.242;2023-10-08T02:35:19;102364.50;;;18.60;92.40
36692;BME280;22678;52.052;4.242;2023-10-08T02:37:45;102370.72;;;18.60;92.61
36692;BME280;22678;52.052;4.242;2023-10-08T02:40:11;102372.53;;;18.58;92.57
36692;BME280;22678;52.052;4.242;2023-10-08T02:42:46;102372.47;;;18.61;92.76
36692;BME280;22678;52.052;4.242;2023-10-08T02:45:12;102378.69;;;18.60;92.82
36692;BME280;22678;52.052;4.242;2023-10-08T02:47:42;102371.72;;;18.53;92.97
36692;BME280;22678;52.052;4.242;2023-10-08T02:50:10;102373.50;;;18.54;93.10
36692;BME280;22678;52.052;4.242;2023-10-08T02:52:41;102374.28;;;18.59;93.12
36692;BME280;22678;52.052;4.242;2023-10-08T02:55:07;102370.75;;;18.59;93.06
36692;BME280;22678;52.052;4.242;2023-10-08T02:57:43;102370.81;;;18.54;93.06
36692;BME280;22678;52.052;4.242;2023-10-08T03:00:09;102365.50;;;18.54;93.29
36692;BME280;22678;52.052;4.242;2023-10-08T03:02:38;102356.69;;;18.49;93.37
36692;BME280;22678;52.052;4.242;2023-10-08T03:05:05;102348.78;;;18.44;93.56
36692;BME280;22678;52.052;4.242;2023-10-08T03:07:33;102359.25;;;18.53;93.51
36692;BME280;22678;52.052;4.242;2023-10-08T03:10:00;102367.28;;;18.52;93.53
36692;BME280;22678;52.052;4.242;2023-10-08T03:12:35;102361.09;;;18.51;93.54
36692;BME280;22678;52.052;4.242;2023-10-08T03:15:02;102366.50;;;18.47;93.70
36692;BME280;22678;52.052;4.242;2023-10-08T03:18:00;102387.78;;;18.48;93.96
36692;BME280;22678;52.052;4.242;2023-10-08T03:20:35;102381.66;;;18.45;93.87
36692;BME280;22678;52.052;4.242;2023-10-08T03:23:07;102392.25;;;18.48;93.90
36692;BME280;22678;52.052;4.242;2023-10-08T03:25:56;102394.03;;;18.46;94.03
36692;BME280;22678;52.052;4.242;2023-10-08T03:28:27;102401.25;;;18.41;94.05
36692;BME280;22678;52.052;4.242;2023-10-08T03:31:00;102396.00;;;18.34;94.15
36692;BME280;22678;52.052;4.242;2023-10-08T03:33:34;102391.66;;;18.29;94.48
36692;BME280;22678;52.052;4.242;2023-10-08T03:36:04;102398.66;;;18.33;94.18
36692;BME280;22678;52.052;4.242;2023-10-08T03:38:49;102408.44;;;18.34;94.44
36692;BME280;22678;52.052;4.242;2023-10-08T03:41:17;102402.34;;;18.27;94.45
36692;BME280;22678;52.052;4.242;2023-10-08T03:43:43;102414.66;;;18.34;94.26
36692;BME280;22678;52.052;4.242;2023-10-08T03:46:21;102405.91;;;18.26;94.39
36692;BME280;22678;52.052;4.242;2023-10-08T03:48:49;102412.97;;;18.29;94.32
36692;BME280;22678;52.052;4.242;2023-10-08T03:51:17;102412.06;;;18.28;94.54
36692;BME280;22678;52.052;4.242;2023-10-08T03:53:45;102401.50;;;18.24;94.69
36692;BME280;22678;52.052;4.242;2023-10-08T03:56:25;102409.44;;;18.27;94.67
36692;BME280;22678;52.052;4.242;2023-10-08T03:58:50;102414.81;;;18.24;94.70
36692;BME280;22678;52.052;4.242;2023-10-08T04:01:20;102418.34;;;18.23;94.71
36692;BME280;22678;52.052;4.242;2023-10-08T04:03:45;102426.41;;;18.19;94.69
36692;BME280;22678;52.052;4.242;2023-10-08T04:06:17;102422.09;;;18.11;94.63
36692;BME280;22678;52.052;4.242;2023-10-08T04:08:48;102441.50;;;18.19;94.80
36692;BME280;22678;52.052;4.242;2023-10-08T04:11:42;102428.28;;;18.13;94.87
36692;BME280;22678;52.052;4.242;2023-10-08T04:14:21;102451.28;;;18.18;94.97
36692;BME280;22678;52.052;4.242;2023-10-08T04:16:48;102440.72;;;18.11;95.16
36692;BME280;22678;52.052;4.242;2023-10-08T04:19:20;102445.97;;;18.17;95.29
36692;BME280;22678;52.052;4.242;2023-10-08T04:21:47;102436.38;;;18.05;95.46
36692;BME280;22678;52.052;4.242;2023-10-08T04:24:20;102453.13;;;18.12;95.73
36692;BME280;22678;52.052;4.242;2023-10-08T04:26:46;102438.09;;;18.09;95.72
36692;BME280;22678;52.052;4.242;2023-10-08T04:29:11;102423.94;;;18.06;95.95
36692;BME280;22678;52.052;4.242;2023-10-08T04:31:41;102444.25;;;18.13;95.58
36692;BME280;22678;52.052;4.242;2023-10-08T04:34:12;102446.03;;;18.14;96.10
36692;BME280;22678;52.052;4.242;2023-10-08T04:36:47;102452.28;;;18.10;96.39
36692;BME280;22678;52.052;4.242;2023-10-08T04:39:20;102448.78;;;18.04;96.41
36692;BME280;22678;52.052;4.242;2023-10-08T04:41:52;102469.19;;;18.07;96.61
36692;BME280;22678;52.052;4.242;2023-10-08T04:44:19;102461.16;;;18.09;96.55
36692;BME280;22678;52.052;4.242;2023-10-08T04:46:47;102452.41;;;18.00;96.47
36692;BME280;22678;52.052;4.242;2023-10-08T04:49:16;102471.00;;;18.02;96.57
36692;BME280;22678;52.052;4.242;2023-10-08T04:52:07;102449.88;;;17.91;96.78
36692;BME280;22678;52.052;4.242;2023-10-08T04:54:44;102433.03;;;17.91;96.48
36692;BME280;22678;52.052;4.242;2023-10-08T04:57:16;102448.91;;;17.97;96.75
36692;BME280;22678;52.052;4.242;2023-10-08T04:59:42;102442.78;;;17.90;96.67
36692;BME280;22678;52.052;4.242;2023-10-08T05:02:09;102444.53;;;17.91;96.78
36692;BME280;22678;52.052;4.242;2023-10-08T05:04:53;102439.28;;;17.85;96.76
36692;BME280;22678;52.052;4.242;2023-10-08T05:07:31;102435.78;;;17.83;96.75
36692;BME280;22678;52.052;4.242;2023-10-08T05:10:13;102436.69;;;17.79;97.00
36692;BME280;22678;52.052;4.242;2023-10-08T05:12:51;102449.03;;;17.86;96.88
36692;BME280;22678;52.052;4.242;2023-10-08T05:15:40;102450.81;;;17.84;96.99
36692;BME280;22678;52.052;4.242;2023-10-08T05:18:28;102445.59;;;17.76;96.83
36692;BME280;22678;52.052;4.242;2023-10-08T05:21:13;102450.03;;;17.77;97.37
36692;BME280;22678;52.052;4.242;2023-10-08T05:23:51;102451.78;;;17.77;97.02
36692;BME280;22678;52.052;4.242;2023-10-08T05:26:33;102449.13;;;17.77;96.95
36692;BME280;22678;52.052;4.242;2023-10-08T05:29:07;102441.22;;;17.71;96.93
36692;BME280;22678;52.052;4.242;2023-10-08T05:31:52;102445.69;;;17.68;96.92
36692;BME280;22678;52.052;4.242;2023-10-08T05:34:36;102442.25;;;17.59;96.90
36692;BME280;22678;52.052;4.242;2023-10-08T05:37:08;102442.31;;;17.56;97.03
36692;BME280;22678;52.052;4.242;2023-10-08T05:39:33;102444.91;;;17.60;96.98
36692;BME280;22678;52.052;4.242;2023-10-08T05:42:04;102445.84;;;17.55;97.04
36692;BME280;22678;52.052;4.242;2023-10-08T05:44:41;102449.41;;;17.55;97.04
36692;BME280;22678;52.052;4.242;2023-10-08T05:47:14;102449.47;;;17.50;96.68
36692;BME280;22678;52.052;4.242;2023-10-08T05:50:01;102453.88;;;17.50;96.69
36692;BME280;22678;52.052;4.242;2023-10-08T05:52:53;102451.22;;;17.50;96.66
36692;BME280;22678;52.052;4.242;2023-10-08T05:55:25;102464.53;;;17.50;96.61
36692;BME280;22678;52.052;4.242;2023-10-08T05:57:55;102461.09;;;17.42;96.60
36692;BME280;22678;52.052;4.242;2023-10-08T06:00:44;102470.78;;;17.46;96.57
36692;BME280;22678;52.052;4.242;2023-10-08T06:03:19;102464.69;;;17.38;96.55
36692;BME280;22678;52.052;4.242;2023-10-08T06:06:07;102484.13;;;17.40;96.44
36692;BME280;22678;52.052;4.242;2023-10-08T06:08:36;102493.00;;;17.39;96.47
36692;BME280;22678;52.052;4.242;2023-10-08T06:11:18;102482.44;;;17.32;96.62
36692;BME280;22678;52.052;4.242;2023-10-08T06:14:02;102482.41;;;17.36;96.61
36692;BME280;22678;52.052;4.242;2023-10-08T06:16:36;102492.16;;;17.37;96.85
36692;BME280;22678;52.052;4.242;2023-10-08T06:19:08;102494.78;;;17.40;96.89
36692;BME280;22678;52.052;4.242;2023-10-08T06:21:39;102499.25;;;17.36;96.66
36692;BME280;22678;52.052;4.242;2023-10-08T06:24:05;102503.66;;;17.37;97.08
36692;BME280;22678;52.052;4.242;2023-10-08T06:26:38;102510.72;;;17.40;97.15
36692;BME280;22678;52.052;4.242;2023-10-08T06:29:11;102499.28;;;17.33;97.11
36692;BME280;22678;52.052;4.242;2023-10-08T06:31:54;102494.81;;;17.37;97.32
36692;BME280;22678;52.052;4.242;2023-10-08T06:34:21;102503.66;;;17.39;97.38
36692;BME280;22678;52.052;4.242;2023-10-08T06:36:49;102491.34;;;17.28;97.13
36692;BME280;22678;52.052;4.242;2023-10-08T06:39:18;102516.09;;;17.37;97.28
36692;BME280;22678;52.052;4.242;2023-10-08T06:41:45;102520.59;;;17.31;97.03
36692;BME280;22678;52.052;4.242;2023-10-08T06:44:11;102521.53;;;17.26;96.92
36692;BME280;22678;52.052;4.242;2023-10-08T06:46:39;102524.25;;;17.16;97.13
36692;BME280;22678;52.052;4.242;2023-10-08T06:49:07;102542.84;;;17.21;97.14
36692;BME280;22678;52.052;4.242;2023-10-08T06:51:36;102542.84;;;17.21;96.95
36692;BME280;22678;52.052;4.242;2023-10-08T06:54:02;102541.97;;;17.16;96.96
36692;BME280;22678;52.052;4.242;2023-10-08T06:56:28;102546.41;;;17.17;96.68
36692;BME280;22678;52.052;4.242;2023-10-08T06:58:56;102541.16;;;17.11;96.50
36692;BME280;22678;52.052;4.242;2023-10-08T07:01:24;102542.88;;;17.12;96.49
36692;BME280;22678;52.052;4.242;2023-10-08T07:04:07;102545.56;;;17.10;96.33
36692;BME280;22678;52.052;4.242;2023-10-08T07:06:41;102538.53;;;17.05;96.21
36692;BME280;22678;52.052;4.242;2023-10-08T07:09:09;102536.78;;;17.04;96.30
36692;BME280;22678;52.052;4.242;2023-10-08T07:11:50;102527.97;;;16.97;96.44
36692;BME280;22678;52.052;4.242;2023-10-08T07:14:23;102559.78;;;17.09;96.50
36692;BME280;22678;52.052;4.242;2023-10-08T07:16:53;102555.41;;;17.02;96.40
36692;BME280;22678;52.052;4.242;2023-10-08T07:19:20;102565.09;;;17.05;96.18
36692;BME280;22678;52.052;4.242;2023-10-08T07:21:48;102574.00;;;17.04;96.53
36692;BME280;22678;52.052;4.242;2023-10-08T07:24:19;102571.34;;;17.04;96.18
36692;BME280;22678;52.052;4.242;2023-10-08T07:26:47;102559.88;;;16.92;95.89
36692;BME280;22678;52.052;4.242;2023-10-08T07:29:14;102577.53;;;17.01;95.89
36692;BME280;22678;52.052;4.242;2023-10-08T07:31:43;102579.31;;;17.04;95.82
36692;BME280;22678;52.052;4.242;2023-10-08T07:34:14;102589.94;;;17.04;95.60
36692;BME280;22678;52.052;4.242;2023-10-08T07:36:49;102581.97;;;17.02;95.23
36692;BME280;22678;52.052;4.242;2023-10-08T07:39:16;102593.53;;;16.95;94.76
36692;BME280;22678;52.052;4.242;2023-10-08T07:41:57;102608.59;;;16.93;94.59
36692;BME280;22678;52.052;4.242;2023-10-08T07:44:25;102609.53;;;16.89;94.35
36692;BME280;22678;52.052;4.242;2023-10-08T07:46:53;102586.53;;;16.78;94.40
36692;BME280;22678;52.052;4.242;2023-10-08T07:49:22;102599.81;;;16.80;94.48
36692;BME280;22678;52.052;4.242;2023-10-08T07:51:49;102607.75;;;16.81;94.23
36692;BME280;22678;52.052;4.242;2023-10-08T07:54:26;102613.94;;;16.85;94.18
36692;BME280;22678;52.052;4.242;2023-10-08T07:56:55;102607.75;;;16.81;94.01
36692;BME280;22678;52.052;4.242;2023-10-08T07:59:37;102612.16;;;16.84;93.68
36692;BME280;22678;52.052;4.242;2023-10-08T08:02:12;102613.06;;;16.81;93.56
36692;BME280;22678;52.052;4.242;2023-10-08T08:04:39;102603.31;;;16.82;93.36
36692;BME280;22678;52.052;4.242;2023-10-08T08:07:09;102614.84;;;16.81;93.22
36692;BME280;22678;52.052;4.242;2023-10-08T08:09:42;102615.72;;;16.85;92.99
36692;BME280;22678;52.052;4.242;2023-10-08T08:12:13;102614.84;;;16.87;92.80
36692;BME280;22678;52.052;4.242;2023-10-08T08:14:38;102627.22;;;16.88;92.25
36692;BME280;22678;52.052;4.242;2023-10-08T08:17:07;102628.13;;;16.87;92.12
36692;BME280;22678;52.052;4.242;2023-10-08T08:19:45;102631.66;;;16.89;91.74
36692;BME280;22678;52.052;4.242;2023-10-08T08:22:13;102628.09;;;16.93;91.40
36692;BME280;22678;52.052;4.242;2023-10-08T08:24:50;102630.72;;;16.96;91.24
36692;BME280;22678;52.052;4.242;2023-10-08T08:27:19;102623.59;;;17.00;91.19
36692;BME280;22678;52.052;4.242;2023-10-08T08:30:01;102628.88;;;17.09;90.83
36692;BME280;22678;52.052;4.242;2023-10-08T08:32:36;102619.97;;;17.12;90.70
36692;BME280;22678;52.052;4.242;2023-10-08T08:35:08;102625.25;;;17.16;90.30
36692;BME280;22678;52.052;4.242;2023-10-08T08:37:35;102634.94;;;17.25;90.26
36692;BME280;22678;52.052;4.242;2023-10-08T08:40:06;102640.22;;;17.28;90.03
36692;BME280;22678;52.052;4.242;2023-10-08T08:42:44;102633.19;;;17.24;89.42
36692;BME280;22678;52.052;4.242;2023-10-08T08:45:12;102633.22;;;17.21;89.05
36692;BME280;22678;52.052;4.242;2023-10-08T08:47:39;102637.69;;;17.14;88.49
36692;BME280;22678;52.052;4.242;2023-10-08T08:50:10;102651.81;;;17.24;88.29
36692;BME280;22678;52.052;4.242;2023-10-08T08:52:36;102646.50;;;17.23;88.15
36692;BME280;22678;52.052;4.242;2023-10-08T08:55:05;102638.59;;;17.10;87.62
36692;BME280;22678;52.052;4.242;2023-10-08T08:57:39;102640.34;;;17.14;87.40
36692;BME280;22678;52.052;4.242;2023-10-08T09:00:07;102628.84;;;17.14;87.56
36692;BME280;22678;52.052;4.242;2023-10-08T09:02:40;102636.78;;;17.20;87.71
36692;BME280;22678;52.052;4.242;2023-10-08T09:05:05;102638.53;;;17.24;87.64
36692;BME280;22678;52.052;4.242;2023-10-08T09:10:24;102633.16;;;17.27;87.58
36692;BME280;22678;52.052;4.242;2023-10-08T09:12:54;102642.91;;;17.27;87.05
36692;BME280;22678;52.052;4.242;2023-10-08T09:15:23;102639.38;;;17.26;87.04
36692;BME280;22678;52.052;4.242;2023-10-08T09:17:49;102634.97;;;17.21;86.58
36692;BME280;22678;52.052;4.242;2023-10-08T09:20:15;102628.75;;;17.23;86.85
36692;BME280;22678;52.052;4.242;2023-10-08T09:22:40;102630.50;;;17.30;86.73
36692;BME280;22678;52.052;4.242;2023-10-08T09:25:06;102631.34;;;17.32;86.52
36692;BME280;22678;52.052;4.242;2023-10-08T09:27:32;102625.97;;;17.39;86.38
36692;BME280;22678;52.052;4.242;2023-10-08T09:29:58;102635.69;;;17.44;86.48
36692;BME280;22678;52.052;4.242;2023-10-08T09:32:24;102636.53;;;17.49;86.18
36692;BME280;22678;52.052;4.242;2023-10-08T09:34:52;102653.28;;;17.62;85.78
36692;BME280;22678;52.052;4.242;2023-10-08T09:37:18;102645.31;;;17.62;85.09
36692;BME280;22678;52.052;4.242;2023-10-08T09:39:48;102631.03;;;17.69;85.06
36692;BME280;22678;52.052;4.242;2023-10-08T09:42:14;102638.03;;;17.77;84.82
36692;BME280;22678;52.052;4.242;2023-10-08T09:44:40;102625.63;;;17.80;84.44
36692;BME280;22678;52.052;4.242;2023-10-08T09:47:07;102641.47;;;17.94;84.27
36692;BME280;22678;52.052;4.242;2023-10-08T09:49:41;102603.41;;;17.83;83.73
36692;BME280;22678;52.052;4.242;2023-10-08T09:52:16;102624.38;;;18.15;83.27
36692;BME280;22678;52.052;4.242;2023-10-08T09:54:59;102626.91;;;18.28;82.71
36692;BME280;22678;52.052;4.242;2023-10-08T09:57:27;102626.78;;;18.35;82.08
36692;BME280;22678;52.052;4.242;2023-10-08T09:59:53;102630.31;;;18.39;81.80
36692;BME280;22678;52.052;4.242;2023-10-08T10:02:19;102608.34;;;18.21;81.03
36692;BME280;22678;52.052;4.242;2023-10-08T10:04:50;102617.25;;;18.17;80.59
36692;BME280;22678;52.052;4.242;2023-10-08T10:07:17;102638.56;;;18.17;80.67
36692;BME280;22678;52.052;4.242;2023-10-08T10:09:43;102641.13;;;18.25;80.90
36692;BME280;22678;52.052;4.242;2023-10-08T10:12:11;102642.91;;;18.26;80.71
36692;BME280;22678;52.052;4.242;2023-10-08T10:14:45;102641.13;;;18.25;80.86
36692;BME280;22678;52.052;4.242;2023-10-08T10:17:15;102649.09;;;18.27;81.05
36692;BME280;22678;52.052;4.242;2023-10-08T10:19:50;102640.25;;;18.25;80.99
36692;BME280;22678;52.052;4.242;2023-10-08T10:22:27;102642.91;;;18.26;81.05
36692;BME280;22678;52.052;4.242;2023-10-08T10:24:53;102650.91;;;18.25;80.71
36692;BME280;22678;52.052;4.242;2023-10-08T10:27:19;102642.84;;;18.29;80.61
36692;BME280;22678;52.052;4.242;2023-10-08T10:29:44;102642.78;;;18.35;80.49
36692;BME280;22678;52.052;4.242;2023-10-08T10:32:14;102648.97;;;18.39;80.43
36692;BME280;22678;52.052;4.242;2023-10-08T10:34:42;102645.31;;;18.46;80.30
36692;BME280;22678;52.052;4.242;2023-10-08T10:37:07;102633.69;;;18.52;80.31
36692;BME280;22678;52.052;4.242;2023-10-08T10:40:05;102646.75;;;18.72;80.21
36692;BME280;22678;52.052;4.242;2023-10-08T10:42:37;102623.53;;;18.82;79.69
36692;BME280;22678;52.052;4.242;2023-10-08T10:45:15;102636.56;;;19.03;79.04
36692;BME280;22678;52.052;4.242;2023-10-08T10:47:59;102632.91;;;19.09;78.30
36692;BME280;22678;52.052;4.242;2023-10-08T10:50:38;102643.44;;;19.18;77.60
36692;BME280;22678;52.052;4.242;2023-10-08T10:53:14;102636.34;;;19.19;77.12
36692;BME280;22678;52.052;4.242;2023-10-08T10:55:41;102629.13;;;19.24;76.89
36692;BME280;22678;52.052;4.242;2023-10-08T10:58:13;102620.34;;;19.19;76.74
36692;BME280;22678;52.052;4.242;2023-10-08T11:00:42;102631.75;;;19.27;76.54
36692;BME280;22678;52.052;4.242;2023-10-08T11:03:07;102611.34;;;19.24;76.09
36692;BME280;22678;52.052;4.242;2023-10-08T11:05:46;102618.28;;;19.36;75.81
36692;BME280;22678;52.052;4.242;2023-10-08T11:08:15;102620.00;;;19.37;75.62
36692;BME280;22678;52.052;4.242;2023-10-08T11:10:43;102609.50;;;19.28;75.83
36692;BME280;22678;52.052;4.242;2023-10-08T11:13:15;102615.56;;;19.38;75.85
36692;BME280;22678;52.052;4.242;2023-10-08T11:15:42;102619.00;;;19.44;75.80
36692;BME280;22678;52.052;4.242;2023-10-08T11:18:10;102612.72;;;19.49;76.08
36692;BME280;22678;52.052;4.242;2023-10-08T11:20:36;102634.88;;;19.54;75.41
36692;BME280;22678;52.052;4.242;2023-10-08T11:23:06;102625.09;;;19.53;75.67
36692;BME280;22678;52.052;4.242;2023-10-08T11:26:01;102620.63;;;19.53;75.63
36692;BME280;22678;52.052;4.242;2023-10-08T11:31:05;102624.97;;;19.60;75.83
36692;BME280;22678;52.052;4.242;2023-10-08T11:33:38;102623.97;;;19.66;75.43
36692;BME280;22678;52.052;4.242;2023-10-08T11:36:05;102611.47;;;19.68;75.67
36692;BME280;22678;52.052;4.242;2023-10-08T11:38:56;102624.66;;;19.77;75.05
36692;BME280;22678;52.052;4.242;2023-10-08T11:41:31;102614.88;;;19.80;75.44
36692;BME280;22678;52.052;4.242;2023-10-08T11:44:09;102619.97;;;19.92;75.37
36692;BME280;22678;52.052;4.242;2023-10-08T11:46:38;102617.22;;;19.97;75.04
36692;BME280;22678;52.052;4.242;2023-10-08T11:49:04;102613.53;;;20.02;75.18
36692;BME280;22678;52.052;4.242;2023-10-08T11:51:33;102618.72;;;20.11;74.85
36692;BME280;22678;52.052;4.242;2023-10-08T11:54:00;102543.63;;;19.82;74.33
36692;BME280;22678;52.052;4.242;2023-10-08T11:56:28;102599.09;;;20.12;74.38
36692;BME280;22678;52.052;4.242;2023-10-08T11:58:54;102573.16;;;20.18;73.95
36692;BME280;22678;52.052;4.242;2023-10-08T12:01:22;102594.13;;;20.38;73.87
36692;BME280;22678;52.052;4.242;2023-10-08T12:03:49;102569.13;;;20.40;73.55
36692;BME280;22678;52.052;4.242;2023-10-08T12:06:15;102571.69;;;20.46;73.02
36692;BME280;22678;52.052;4.242;2023-10-08T12:08:47;102550.47;;;20.37;72.13
36692;BME280;22678;52.052;4.242;2023-10-08T12:11:15;102580.31;;;20.58;72.08
36692;BME280;22678;52.052;4.242;2023-10-08T12:13:41;102589.19;;;20.60;72.21
36692;BME280;22678;52.052;4.242;2023-10-08T12:16:14;102581.19;;;20.60;72.30
36692;BME280;22678;52.052;4.242;2023-10-08T12:18:45;102566.88;;;20.61;72.28
36692;BME280;22678;52.052;4.242;2023-10-08T12:21:13;102537.81;;;20.47;71.92
36692;BME280;22678;52.052;4.242;2023-10-08T12:23:40;102536.06;;;20.44;71.46
36692;BME280;22678;52.052;4.242;2023-10-08T12:26:08;102534.19;;;20.50;72.22
36692;BME280;22678;52.052;4.242;2023-10-08T12:28:35;102556.78;;;20.75;72.08
36692;BME280;22678;52.052;4.242;2023-10-08T12:31:02;102556.09;;;20.67;71.69
36692;BME280;22678;52.052;4.242;2023-10-08T12:33:29;102542.06;;;20.56;70.96
36692;BME280;22678;52.052;4.242;2023-10-08T12:35:55;102533.59;;;20.37;71.35
36692;BME280;22678;52.052;4.242;2023-10-08T12:38:25;102540.59;;;20.42;71.58
36692;BME280;22678;52.052;4.242;2023-10-08T12:40:53;102548.59;;;20.42;71.95
36692;BME280;22678;52.052;4.242;2023-10-08T12:43:23;102535.28;;;20.41;71.97
36692;BME280;22678;52.052;4.242;2023-10-08T12:45:53;102534.28;;;20.46;72.44
36692;BME280;22678;52.052;4.242;2023-10-08T12:48:22;102522.59;;;20.49;72.27
36692;BME280;22678;52.052;4.242;2023-10-08T12:50:49;102525.16;;;20.54;72.23
36692;BME280;22678;52.052;4.242;2023-10-08T12:53:37;102511.13;;;20.45;71.85
36692;BME280;22678;52.052;4.242;2023-10-08T12:56:06;102498.66;;;20.44;71.78
36692;BME280;22678;52.052;4.242;2023-10-08T12:58:34;102506.59;;;20.47;72.05
36692;BME280;22678;52.052;4.242;2023-10-08T13:01:20;102509.44;;;20.41;71.87
36692;BME280;22678;52.052;4.242;2023-10-08T13:03:46;102514.69;;;20.44;72.26
36692;BME280;22678;52.052;4.242;2023-10-08T13:06:18;102491.81;;;20.33;72.71
36692;BME280;22678;52.052;4.242;2023-10-08T13:08:51;102509.34;;;20.44;72.63
36692;BME280;22678;52.052;4.242;2023-10-08T13:11:21;102518.34;;;20.40;72.59
36692;BME280;22678;52.052;4.242;2023-10-08T13:13:55;102514.94;;;20.34;72.66
36692;BME280;22678;52.052;4.242;2023-10-08T13:16:27;102502.91;;;20.16;72.84